Terminal Aerodrome Forecast
Issued by NWS

Current Version | Previous Version | Text Only | Print | Product List | Glossary Off
Versions: 1 2 3 4 5 6 7 8 9 10 11 12 13 14 15 16 17 18 19 20 21 22 23

000
FTUS41 KILN 251400 AAB
TAFLUK
TAF AMD
KLUK 251456Z 2515/2612 25010KT P6SM SCT035
     FM260000 VRB03KT P6SM SCT035
     FM260700 VRB03KT P6SM BKN030=

USA.gov is the U.S. government's official web portal to all federal, state and local government web resources and services.